createdAt,value
2023-02-11T00:00:19.231Z,100650.63
2023-02-11T00:02:48.172Z,100645.44
2023-02-11T00:05:16.063Z,100642.31
2023-02-11T00:07:44.060Z,100646.28
2023-02-11T00:10:11.947Z,100638.38
2023-02-11T00:12:40.049Z,100641.69
2023-02-11T00:15:18.008Z,100641.69
2023-02-11T00:17:48.383Z,100643.56
2023-02-11T00:20:16.879Z,100636.94
2023-02-11T00:22:45.377Z,100635.06
2023-02-11T00:25:13.831Z,100633.00
2023-02-11T00:27:41.793Z,100634.66
2023-02-11T00:30:14.129Z,100636.31
2023-02-11T00:32:43.412Z,100641.06
2023-02-11T00:35:11.271Z,100642.53
2023-02-11T00:37:41.092Z,100644.16
2023-02-11T00:40:11.128Z,100644.38
2023-02-11T00:42:39.245Z,100632.53
2023-02-11T00:45:11.745Z,100637.53
2023-02-11T00:47:42.484Z,100639.97
2023-02-11T00:50:10.358Z,100637.91
2023-02-11T00:52:39.713Z,100637.53
2023-02-11T00:55:08.224Z,100633.38
2023-02-11T00:57:40.693Z,100636.91
2023-02-11T01:00:11.237Z,100637.53
2023-02-11T01:02:39.174Z,100629.84
2023-02-11T01:05:07.328Z,100637.31
2023-02-11T01:07:36.508Z,100640.22
2023-02-11T01:10:06.758Z,100642.69
2023-02-11T01:12:37.820Z,100631.28
2023-02-11T01:15:09.915Z,100629.59
2023-02-11T01:17:37.774Z,100633.94
2023-02-11T01:20:08.395Z,100644.50
2023-02-11T01:22:39.790Z,100627.09
2023-02-11T01:25:08.161Z,100630.81
2023-02-11T01:27:37.631Z,100622.56
2023-02-11T01:30:14.673Z,100619.66
2023-02-11T01:32:48.686Z,100626.25
2023-02-11T01:35:18.774Z,100610.09
2023-02-11T01:37:47.430Z,100608.00
2023-02-11T01:40:18.191Z,100592.69
2023-02-11T01:42:49.372Z,100607.81
2023-02-11T01:45:42.977Z,100608.00
2023-02-11T01:48:25.111Z,100601.81
2023-02-11T01:51:00.784Z,100596.00
2023-02-11T01:53:48.854Z,100596.44
2023-02-11T01:56:46.801Z,100600.00
2023-02-11T01:59:22.145Z,100592.75
2023-02-11T02:01:59.592Z,100601.03
2023-02-11T02:04:43.005Z,100603.09
2023-02-11T02:07:19.761Z,100598.31
2023-02-11T02:09:57.734Z,100601.56
2023-02-11T02:12:26.785Z,100599.34
2023-02-11T02:15:32.588Z,100594.56
2023-02-11T02:18:07.336Z,100596.00
2023-02-11T02:21:02.569Z,100589.41
2023-02-11T02:24:16.528Z,100588.13
2023-02-11T02:57:43.818Z,100562.91
2023-02-11T03:00:30.366Z,100553.16
2023-02-11T03:03:28.414Z,100552.34
2023-02-11T03:06:05.509Z,100547.63
2023-02-11T03:08:44.784Z,100552.81
2023-02-11T03:11:17.634Z,100552.84
2023-02-11T03:13:48.711Z,100553.22
2023-02-11T03:16:29.470Z,100552.78
2023-02-11T03:19:12.797Z,100554.63
2023-02-11T03:21:44.655Z,100548.44
2023-02-11T03:24:26.742Z,100550.91
2023-02-11T03:27:26.825Z,100548.03
2023-02-11T03:30:19.748Z,100553.88
2023-02-11T03:32:55.856Z,100536.28
2023-02-11T03:35:33.755Z,100530.25
2023-02-11T03:38:14.199Z,100524.50
2023-02-11T03:40:45.901Z,100523.66
2023-02-11T03:43:19.621Z,100521.38
2023-02-11T03:45:52.132Z,100515.78
2023-02-11T03:48:30.998Z,100533.34
2023-02-11T03:51:03.815Z,100525.72
2023-02-11T03:53:31.825Z,100510.38
2023-02-11T03:56:07.801Z,100538.72
2023-02-11T03:58:36.764Z,100525.31
2023-02-11T04:01:09.880Z,100512.47
2023-02-11T04:03:38.052Z,100524.50
2023-02-11T04:06:06.766Z,100522.84
2023-02-11T04:08:35.096Z,100522.22
2023-02-11T04:11:06.951Z,100528.59
2023-02-11T04:13:35.458Z,100521.19
2023-02-11T04:16:07.878Z,100536.06
2023-02-11T04:18:35.931Z,100529.03
2023-02-11T04:21:03.815Z,100529.66
2023-02-11T04:23:33.744Z,100514.75
2023-02-11T04:26:01.692Z,100516.22
2023-02-11T04:29:01.250Z,100507.31
2023-02-11T04:31:29.370Z,100498.22
2023-02-11T04:33:57.789Z,100502.13
2023-02-11T04:36:26.212Z,100506.28
2023-02-11T04:38:56.895Z,100518.09
2023-02-11T04:41:25.483Z,100509.59
2023-02-11T04:46:47.038Z,100511.88
2023-02-11T04:49:16.419Z,100519.13
2023-02-11T04:51:48.931Z,100519.53
2023-02-11T04:54:18.684Z,100519.53
2023-02-11T04:56:46.781Z,100514.34
2023-02-11T04:59:14.712Z,100513.31
2023-02-11T05:01:43.273Z,100517.44
2023-02-11T05:04:15.091Z,100510.00
2023-02-11T05:06:44.723Z,100520.34
2023-02-11T05:09:14.583Z,100512.28
2023-02-11T05:11:47.777Z,100513.72
2023-02-11T05:14:15.602Z,100522.22
2023-02-11T05:16:43.519Z,100517.88
2023-02-11T05:19:14.780Z,100523.25
2023-02-11T05:21:56.711Z,100506.69
2023-02-11T05:24:30.547Z,100511.66
2023-02-11T05:27:23.625Z,100512.47
2023-02-11T05:29:52.822Z,100512.28
2023-02-11T05:32:21.437Z,100503.19
2023-02-11T05:34:50.544Z,100488.66
2023-02-11T05:37:22.714Z,100495.28
2023-02-11T05:39:51.025Z,100494.03
2023-02-11T05:42:20.790Z,100495.50
2023-02-11T05:44:50.819Z,100490.34
2023-02-11T05:47:18.709Z,100498.41
2023-02-11T05:49:48.846Z,100500.03
2023-02-11T05:52:18.213Z,100487.22
2023-02-11T05:54:46.177Z,100505.88
2023-02-11T05:57:14.292Z,100499.44
2023-02-11T05:59:42.724Z,100505.84
2023-02-11T06:02:11.509Z,100506.22
2023-02-11T06:04:39.509Z,100507.94
2023-02-11T06:07:11.932Z,100504.00
2023-02-11T06:09:39.781Z,100495.09
2023-02-11T06:12:07.794Z,100485.97
2023-02-11T06:14:36.079Z,100481.81
2023-02-11T06:17:04.114Z,100484.69
2023-02-11T06:19:33.826Z,100483.44
2023-02-11T06:22:01.776Z,100477.25
2023-02-11T06:24:54.759Z,100475.97
2023-02-11T06:27:19.349Z,100478.28
2023-02-11T06:29:48.241Z,100469.75
2023-02-11T06:32:36.984Z,100476.38
2023-02-11T06:35:11.948Z,100466.78
2023-02-11T06:37:41.255Z,100475.28
2023-02-11T06:40:11.817Z,100470.09
2023-02-11T06:42:39.849Z,100478.00
2023-02-11T06:45:11.790Z,100484.34
2023-02-11T06:47:43.505Z,100479.59
2023-02-11T06:50:14.438Z,100492.97
2023-02-11T06:52:42.367Z,100501.09
2023-02-11T06:55:11.561Z,100513.56
2023-02-11T06:57:41.651Z,100514.41
2023-02-11T07:00:10.333Z,100509.41
2023-02-11T07:02:38.900Z,100511.06
2023-02-11T07:05:07.571Z,100518.50
2023-02-11T07:07:35.979Z,100506.03
2023-02-11T07:10:04.873Z,100499.97
2023-02-11T07:12:32.837Z,100505.22
2023-02-11T07:15:00.769Z,100506.59
2023-02-11T07:17:29.053Z,100486.56
2023-02-11T07:19:58.618Z,100481.53
2023-02-11T07:22:26.751Z,100484.44
2023-02-11T07:24:55.107Z,100493.59
2023-02-11T07:27:24.964Z,100492.34
2023-02-11T07:29:53.781Z,100484.56
2023-02-11T07:32:21.897Z,100493.81
2023-02-11T07:34:52.523Z,100504.38
2023-02-11T07:37:20.402Z,100508.69
2023-02-11T07:39:48.479Z,100503.06
2023-02-11T07:42:16.813Z,100508.00
2023-02-11T07:44:49.259Z,100500.84
2023-02-11T07:47:18.810Z,100505.84
2023-02-11T07:49:47.700Z,100490.06
2023-02-11T07:52:17.068Z,100477.78
2023-02-11T07:54:45.052Z,100482.09
2023-02-11T07:57:12.920Z,100485.72
2023-02-11T07:59:40.881Z,100469.59
2023-02-11T08:02:09.722Z,100491.16
2023-02-11T08:04:38.730Z,100484.94
2023-02-11T08:07:06.861Z,100481.41
2023-02-11T08:09:39.879Z,100479.47
2023-02-11T08:12:14.148Z,100483.28
2023-02-11T08:14:42.839Z,100476.22
2023-02-11T08:17:10.764Z,100493.09
2023-02-11T08:19:39.629Z,100483.28
2023-02-11T08:22:08.733Z,100463.94
2023-02-11T08:24:36.611Z,100453.97
2023-02-11T08:27:06.824Z,100463.69
2023-02-11T08:29:35.653Z,100464.91
2023-02-11T08:32:04.067Z,100465.09
2023-02-11T08:34:33.773Z,100467.63
2023-02-11T08:37:01.757Z,100476.13
2023-02-11T08:39:30.758Z,100470.72
2023-02-11T08:41:58.596Z,100479.72
2023-02-11T08:44:27.788Z,100478.00
2023-02-11T08:46:55.727Z,100469.91
2023-02-11T08:49:27.758Z,100485.03
2023-02-11T08:51:56.386Z,100474.16
2023-02-11T08:54:25.949Z,100478.75
2023-02-11T08:56:54.980Z,100487.38
2023-02-11T08:59:23.281Z,100477.50
2023-02-11T09:01:51.966Z,100471.81
2023-02-11T09:04:20.141Z,100466.28
2023-02-11T09:06:49.426Z,100466.53
2023-02-11T09:09:18.747Z,100464.66
2023-02-11T09:11:46.786Z,100468.50
2023-02-11T09:14:21.792Z,100470.56
2023-02-11T09:16:51.521Z,100476.75
2023-02-11T09:19:21.857Z,100481.22
2023-02-11T09:21:50.051Z,100479.50
2023-02-11T09:24:18.869Z,100472.63
2023-02-11T09:26:46.949Z,100480.06
2023-02-11T09:29:14.894Z,100486.84
2023-02-11T09:32:10.961Z,100475.88
2023-02-11T09:34:40.501Z,100467.47
2023-02-11T09:37:08.762Z,100463.41
2023-02-11T09:39:38.840Z,100459.59
2023-02-11T09:42:28.215Z,100461.28
2023-02-11T09:48:20.485Z,100467.47
2023-02-11T09:50:56.222Z,100459.75
2023-02-11T09:53:32.895Z,100466.22
2023-02-11T09:56:11.497Z,100464.69
2023-02-11T09:58:44.615Z,100469.75
2023-02-11T10:01:46.748Z,100454.47
2023-02-11T10:04:33.549Z,100463.06
2023-02-11T10:07:11.848Z,100456.00
2023-02-11T10:09:52.301Z,100449.09
2023-02-11T10:12:47.667Z,100446.47
2023-02-11T10:15:18.524Z,100450.28
2023-02-11T10:17:46.959Z,100453.69
2023-02-11T10:20:16.916Z,100461.94
2023-02-11T10:23:09.193Z,100469.00
2023-02-11T10:25:40.792Z,100473.16
2023-02-11T10:28:16.774Z,100469.75
2023-02-11T10:31:00.265Z,100458.91
2023-02-11T10:33:51.784Z,100462.53
2023-02-11T10:36:25.621Z,100468.44
2023-02-11T10:38:53.772Z,100445.69
2023-02-11T10:41:28.709Z,100447.81
2023-02-11T10:43:59.877Z,100446.31
2023-02-11T10:46:34.040Z,100438.56
2023-02-11T10:49:03.961Z,100434.75
2023-02-11T10:51:34.237Z,100432.91
2023-02-11T10:54:07.820Z,100434.31
2023-02-11T10:56:38.087Z,100435.03
2023-02-11T10:59:28.802Z,100432.19
2023-02-11T11:02:01.268Z,100422.50
2023-02-11T11:04:42.975Z,100425.16
2023-02-11T11:07:27.862Z,100425.50
2023-02-11T11:13:44.764Z,100425.75
2023-02-11T11:16:20.421Z,100413.47
2023-02-11T11:19:10.656Z,100423.72
2023-02-11T11:21:43.336Z,100402.84
2023-02-11T11:24:19.801Z,100409.19
2023-02-11T11:26:59.563Z,100409.59
2023-02-11T11:29:46.142Z,100406.00
2023-02-11T11:32:24.453Z,100397.16
2023-02-11T11:34:58.818Z,100402.75
2023-02-11T11:37:35.326Z,100393.88
2023-02-11T11:40:16.886Z,100396.06
2023-02-11T11:42:44.802Z,100388.44
2023-02-11T11:45:19.971Z,100381.63
2023-02-11T11:48:02.266Z,100379.50
2023-02-11T11:50:55.773Z,100377.94
2023-02-11T11:53:41.257Z,100370.25
2023-02-11T11:56:22.043Z,100370.47
2023-02-11T11:58:51.872Z,100364.06
2023-02-11T12:02:08.678Z,100354.81
2023-02-11T12:04:56.705Z,100345.91
2023-02-11T12:07:40.770Z,100346.16
2023-02-11T12:10:16.036Z,100347.41
2023-02-11T12:13:00.989Z,100335.53
2023-02-11T12:15:47.700Z,100334.72
2023-02-11T12:18:33.385Z,100330.94
2023-02-11T12:21:23.110Z,100332.66
2023-02-11T12:24:23.818Z,100325.97
2023-02-11T12:27:11.836Z,100331.56
2023-02-11T12:30:08.178Z,100316.78
2023-02-11T12:33:03.862Z,100308.31
2023-02-11T12:36:01.579Z,100306.50
2023-02-11T12:38:48.846Z,100312.56
2023-02-11T12:41:39.533Z,100306.56
2023-02-11T12:45:07.204Z,100291.16
2023-02-11T12:47:50.510Z,100291.34
2023-02-11T12:50:38.937Z,100285.34
2023-02-11T12:53:10.562Z,100286.72
2023-02-11T12:59:13.044Z,100294.69
2023-02-11T13:01:48.968Z,100292.31
2023-02-11T13:04:33.802Z,100280.66
2023-02-11T13:07:14.827Z,100290.25
2023-02-11T13:10:07.942Z,100284.59
2023-02-11T13:12:58.742Z,100284.81
2023-02-11T13:15:30.262Z,100277.53
2023-02-11T13:18:24.217Z,100291.50
2023-02-11T13:21:04.228Z,100283.75
2023-02-11T13:23:51.799Z,100268.81
2023-02-11T13:26:50.672Z,100266.66
2023-02-11T13:29:44.829Z,100266.97
2023-02-11T13:32:15.832Z,100279.66
2023-02-11T13:34:43.630Z,100296.09
2023-02-11T13:37:32.750Z,100287.06
2023-02-11T13:40:03.738Z,100286.22
2023-02-11T13:45:46.923Z,100286.16
2023-02-11T13:48:38.574Z,100292.16
2023-02-11T13:51:10.970Z,100290.84
2023-02-11T13:53:55.745Z,100285.09
2023-02-11T13:59:27.789Z,100288.69
2023-02-11T14:02:17.941Z,100285.53
2023-02-11T14:08:39.053Z,100289.25
2023-02-11T14:11:33.299Z,100284.84
2023-02-11T14:14:04.185Z,100287.81
2023-02-11T14:16:56.369Z,100285.09
2023-02-11T14:19:47.808Z,100277.56
2023-02-11T14:22:20.488Z,100285.50
2023-02-11T14:25:04.784Z,100283.09
2023-02-11T14:27:51.416Z,100282.03
2023-02-11T14:30:35.431Z,100275.44
2023-02-11T14:33:18.614Z,100269.19
2023-02-11T14:36:09.807Z,100274.47
2023-02-11T14:38:52.879Z,100278.56
2023-02-11T14:41:30.987Z,100274.53
2023-02-11T14:44:03.746Z,100271.31
2023-02-11T14:46:36.882Z,100263.34
2023-02-11T14:49:06.215Z,100265.03
2023-02-11T14:51:42.780Z,100264.81
2023-02-11T14:54:21.252Z,100264.91
2023-02-11T14:57:08.862Z,100263.81
2023-02-11T14:59:37.184Z,100258.13
2023-02-11T15:02:21.863Z,100256.50
2023-02-11T15:04:49.808Z,100266.69
2023-02-11T15:07:18.386Z,100269.53
2023-02-11T15:09:52.193Z,100283.66
2023-02-11T15:12:26.808Z,100276.63
2023-02-11T15:14:59.867Z,100285.34
2023-02-11T15:17:32.088Z,100287.19
2023-02-11T15:20:02.940Z,100271.97
2023-02-11T15:22:36.784Z,100277.69
2023-02-11T15:25:09.099Z,100273.44
2023-02-11T15:27:49.379Z,100274.19
2023-02-11T15:30:25.966Z,100286.69
2023-02-11T15:32:59.246Z,100266.84
2023-02-11T15:35:32.839Z,100267.63
2023-02-11T15:38:04.923Z,100268.59
2023-02-11T15:40:37.872Z,100263.25
2023-02-11T15:43:10.979Z,100277.66
2023-02-11T15:45:52.877Z,100277.06
2023-02-11T15:48:56.352Z,100275.69
2023-02-11T15:51:32.976Z,100281.78
2023-02-11T15:54:08.353Z,100283.44
2023-02-11T15:56:49.190Z,100288.16
2023-02-11T15:59:27.778Z,100299.88
2023-02-11T16:02:08.925Z,100294.44
2023-02-11T16:04:38.003Z,100282.84
2023-02-11T16:07:06.529Z,100300.03
2023-02-11T16:09:36.109Z,100299.47
2023-02-11T16:12:24.226Z,100304.97
2023-02-11T16:14:53.399Z,100305.66
2023-02-11T16:17:28.838Z,100301.22
2023-02-11T16:19:56.976Z,100305.72
2023-02-11T16:22:30.841Z,100301.38
2023-02-11T16:25:01.498Z,100305.41
2023-02-11T16:27:55.915Z,100304.09
2023-02-11T16:30:33.805Z,100305.97
2023-02-11T16:33:02.846Z,100308.19
2023-02-11T16:35:30.665Z,100313.13
2023-02-11T16:37:59.036Z,100324.72
2023-02-11T16:40:32.167Z,100315.03
2023-02-11T16:43:01.964Z,100314.53
2023-02-11T16:45:30.621Z,100315.78
2023-02-11T16:47:58.733Z,100311.97
2023-02-11T16:50:27.577Z,100301.84
2023-02-11T16:52:55.523Z,100311.91
2023-02-11T16:55:23.348Z,100307.78
2023-02-11T16:57:53.012Z,100304.97
2023-02-11T17:00:23.057Z,100300.53
2023-02-11T17:02:51.776Z,100293.94
2023-02-11T17:05:22.977Z,100305.69
2023-02-11T17:07:54.806Z,100309.22
2023-02-11T17:10:23.908Z,100312.19
2023-02-11T17:12:53.472Z,100316.22
2023-02-11T17:15:25.411Z,100315.84
2023-02-11T17:17:54.238Z,100304.94
2023-02-11T17:20:22.348Z,100308.97
2023-02-11T17:22:51.084Z,100314.84
2023-02-11T17:25:45.897Z,100315.78
2023-02-11T17:28:13.847Z,100324.53
2023-02-11T17:30:47.020Z,100329.09
2023-02-11T17:33:14.922Z,100327.38
2023-02-11T17:35:43.536Z,100339.69
2023-02-11T17:38:11.473Z,100344.91
2023-02-11T17:40:40.927Z,100346.53
2023-02-11T17:43:09.187Z,100348.75
2023-02-11T17:45:45.978Z,100346.63
2023-02-11T17:48:13.895Z,100352.63
2023-02-11T17:50:43.650Z,100361.59
2023-02-11T17:53:11.610Z,100359.56
2023-02-11T17:55:40.227Z,100351.06
2023-02-11T17:58:13.824Z,100349.66
2023-02-11T18:00:44.964Z,100349.59
2023-02-11T18:03:14.652Z,100351.56
2023-02-11T18:05:42.535Z,100350.03
2023-02-11T18:13:55.829Z,100358.41
2023-02-11T18:16:27.698Z,100350.75
2023-02-11T18:18:58.862Z,100344.84
2023-02-11T18:21:52.021Z,100353.03
2023-02-11T18:24:20.850Z,100355.75
2023-02-11T18:26:50.539Z,100345.06
2023-02-11T18:29:21.780Z,100359.50
2023-02-11T18:31:49.632Z,100373.72
2023-02-11T18:34:19.680Z,100364.00
2023-02-11T18:36:48.862Z,100376.00
2023-02-11T18:39:19.446Z,100361.53
2023-02-11T18:41:50.831Z,100366.25
2023-02-11T18:44:22.368Z,100360.31
2023-02-11T18:46:51.809Z,100359.00
2023-02-11T18:49:20.628Z,100360.09
2023-02-11T18:51:49.808Z,100366.81
2023-02-11T18:54:19.827Z,100368.41
2023-02-11T18:56:48.903Z,100371.94
2023-02-11T18:59:19.194Z,100366.66
2023-02-11T19:01:48.103Z,100367.25
2023-02-11T19:04:20.835Z,100364.38
2023-02-11T19:06:49.780Z,100380.91
2023-02-11T19:09:21.863Z,100379.09
2023-02-11T19:11:52.887Z,100374.22
2023-02-11T19:14:34.834Z,100388.63
2023-02-11T19:17:06.042Z,100387.28
2023-02-11T19:22:29.186Z,100398.75
2023-02-11T19:24:57.129Z,100392.50
2023-02-11T19:27:25.020Z,100392.16
2023-02-11T19:29:52.895Z,100397.53
2023-02-11T19:32:20.957Z,100399.81
2023-02-11T19:34:53.197Z,100400.22
2023-02-11T19:37:21.746Z,100384.94
2023-02-11T19:39:49.565Z,100389.28
2023-02-11T19:42:19.676Z,100406.50
2023-02-11T19:44:47.582Z,100393.19
2023-02-11T19:47:15.549Z,100392.00
2023-02-11T19:49:43.601Z,100388.94
2023-02-11T19:52:11.568Z,100394.63
2023-02-11T19:54:39.841Z,100396.03
2023-02-11T19:57:07.702Z,100401.38
2023-02-11T19:59:35.651Z,100402.38
2023-02-11T20:02:03.532Z,100406.44
2023-02-11T20:04:37.009Z,100399.03
2023-02-11T20:07:08.585Z,100402.88
2023-02-11T20:09:36.681Z,100402.88
2023-02-11T20:12:08.811Z,100386.13
2023-02-11T20:14:36.771Z,100397.63
2023-02-11T20:17:04.600Z,100398.38
2023-02-11T20:19:35.120Z,100401.91
2023-02-11T20:22:28.255Z,100397.56
2023-02-11T20:24:56.944Z,100404.78
2023-02-11T20:27:25.318Z,100398.03
2023-02-11T20:29:53.157Z,100397.56
2023-02-11T20:32:22.902Z,100395.06
2023-02-11T20:34:53.216Z,100385.53
2023-02-11T20:37:25.536Z,100379.94
2023-02-11T20:39:54.668Z,100390.72
2023-02-11T20:42:26.027Z,100389.16
2023-02-11T20:44:55.480Z,100382.56
2023-02-11T20:47:24.779Z,100379.38
2023-02-11T20:49:55.249Z,100387.84
2023-02-11T20:52:24.873Z,100401.75
2023-02-11T20:54:52.906Z,100395.66
2023-02-11T20:57:28.949Z,100385.38
2023-02-11T20:59:57.728Z,100376.97
2023-02-11T21:02:52.752Z,100383.31
2023-02-11T21:05:20.609Z,100376.97
2023-02-11T21:07:48.460Z,100385.13
2023-02-11T21:10:16.921Z,100390.31
2023-02-11T21:12:44.772Z,100397.41
2023-02-11T21:15:13.935Z,100395.81
2023-02-11T21:20:36.868Z,100395.91
2023-02-11T21:23:05.622Z,100389.56
2023-02-11T21:25:33.589Z,100393.44
2023-02-11T21:28:03.933Z,100399.22
2023-02-11T21:30:58.601Z,100401.94
2023-02-11T21:33:29.874Z,100414.69
2023-02-11T21:35:59.436Z,100417.97
2023-02-11T21:38:28.836Z,100412.53
2023-02-11T21:41:03.323Z,100403.97
2023-02-11T21:43:31.973Z,100412.59
2023-02-11T21:46:00.446Z,100404.28
2023-02-11T21:48:28.844Z,100409.97
2023-02-11T21:50:56.715Z,100406.69
2023-02-11T21:53:28.913Z,100400.78
2023-02-11T21:56:04.186Z,100397.22
2023-02-11T21:58:33.175Z,100414.69
2023-02-11T22:01:13.308Z,100419.72
2023-02-11T22:03:42.126Z,100430.50
2023-02-11T22:06:15.001Z,100436.31
2023-02-11T22:08:44.932Z,100444.97
2023-02-11T22:11:14.841Z,100431.59
2023-02-11T22:13:43.103Z,100430.56
2023-02-11T22:16:15.910Z,100423.97
2023-02-11T22:18:46.446Z,100424.78
2023-02-11T22:21:20.997Z,100431.88
2023-02-11T22:23:50.830Z,100435.88
2023-02-11T22:26:22.876Z,100429.47
2023-02-11T22:28:51.756Z,100429.97
2023-02-11T22:31:25.023Z,100422.00
2023-02-11T22:33:53.044Z,100423.41
2023-02-11T22:36:29.875Z,100432.34
2023-02-11T22:39:01.810Z,100428.47
2023-02-11T22:41:31.927Z,100424.94
2023-02-11T22:44:01.006Z,100428.31
2023-02-11T22:46:30.274Z,100421.00
2023-02-11T22:49:01.908Z,100424.28
2023-02-11T22:51:30.345Z,100430.06
2023-02-11T22:54:01.889Z,100427.69
2023-02-11T22:56:32.499Z,100423.97
2023-02-11T22:59:03.310Z,100422.25
2023-02-11T23:01:31.697Z,100428.41
2023-02-11T23:04:03.170Z,100436.41
2023-02-11T23:06:31.473Z,100440.53
2023-02-11T23:09:02.950Z,100450.25
2023-02-11T23:14:24.774Z,100459.34
2023-02-11T23:16:52.706Z,100447.84
2023-02-11T23:22:13.284Z,100467.44
2023-02-11T23:24:41.127Z,100470.41
2023-02-11T23:27:09.013Z,100467.94
2023-02-11T23:29:37.880Z,100462.81
2023-02-11T23:32:05.720Z,100452.13
2023-02-11T23:37:25.684Z,100453.13
2023-02-11T23:39:53.634Z,100440.84
2023-02-11T23:42:22.431Z,100443.34
2023-02-11T23:44:53.604Z,100444.47
2023-02-11T23:47:24.500Z,100450.97
2023-02-11T23:49:52.462Z,100454.94
2023-02-11T23:52:21.802Z,100458.31
2023-02-11T23:54:50.992Z,100464.66
2023-02-11T23:57:21.033Z,100463.81
2023-02-11T23:59:50.249Z,100461.53
